Time;durP1;ratioP1;P1;durP2;ratioP2;P2;SDS_P1;SDS_P2;PMS_P1;PMS_P2;Temp;Humidity;BMP_temperature;BMP_pressure;BME280_temperature;BME280_humidity;BME280_pressure;Samples;Min_cycle;Max_cycle;Signal;HPM_P1;HPM_P2
2021/12/17 00:00:35;;;;;;;;;35.33;34.33;;;;;2.10;84.93;101396.53;5054237;28;8851;-71
2021/12/17 00:03:39;;;;;;;;;40.00;38.67;;;;;2.17;84.80;101383.53;5039476;28;11475;-70
2021/12/17 00:06:47;;;;;;;;;34.00;32.33;;;;;2.02;83.88;101389.66;5020673;28;11658;-70
2021/12/17 00:09:46;;;;;;;;;42.00;35.33;;;;;2.17;84.44;101378.06;5035609;28;11489;-70
2021/12/17 00:12:42;;;;;;;;;43.67;42.00;;;;;2.10;84.10;101372.00;5043519;28;8871;-69
2021/12/17 00:15:39;;;;;;;;;36.67;34.67;;;;;2.11;83.84;101374.47;5053123;28;8837;-70
2021/12/17 00:18:49;;;;;;;;;41.00;41.00;;;;;1.77;83.99;101368.38;5053595;28;11489;-70
2021/12/17 00:50:32;;;;;;;;;26.67;26.67;;;;;1.70;83.36;101336.94;5054223;28;11566;-70
2021/12/17 00:53:30;;;;;;;;;32.00;31.33;;;;;1.76;83.78;101328.53;5051904;28;11504;-70
2021/12/17 00:56:26;;;;;;;;;25.33;25.33;;;;;1.79;84.21;101330.75;5039734;28;11517;-70
2021/12/17 00:59:23;;;;;;;;;29.00;27.67;;;;;1.57;85.19;101321.78;5052724;28;12303;-70
2021/12/17 01:02:23;;;;;;;;;31.67;30.00;;;;;1.71;85.16;101314.84;5040921;28;11511;-70
2021/12/17 01:05:26;;;;;;;;;25.67;25.00;;;;;1.48;85.63;101310.50;5034243;28;11584;-70
2021/12/17 01:08:22;;;;;;;;;27.67;26.33;;;;;1.42;87.71;101316.97;5033287;28;11538;-69
2021/12/17 01:10:54;;;;;;;;;30.00;27.33;;;;;1.47;87.54;101308.88;5026354;28;11593;-69
2021/12/17 01:13:49;;;;;;;;;32.33;30.00;;;;;1.45;87.96;101300.09;5051872;28;11514;-70
2021/12/17 01:16:45;;;;;;;;;22.33;21.33;;;;;1.63;87.80;101298.94;5039274;28;8818;-70
2021/12/17 01:20:14;;;;;;;;;22.33;20.67;;;;;1.72;87.90;101289.22;5052253;28;11498;-70
2021/12/17 01:35:37;;;;;;;;;30.33;19.67;;;;;1.93;88.65;101252.88;5032104;28;11519;-71
2021/12/17 01:41:13;;;;;;;;;16.00;14.00;;;;;1.83;88.52;101239.13;5033309;28;11547;-70
2021/12/17 01:44:10;;;;;;;;;35.25;31.25;;;;;1.86;88.56;101235.91;5043919;28;11544;-71
2021/12/17 01:47:08;;;;;;;;;19.75;18.50;;;;;1.84;88.40;101229.03;5051455;28;11658;-70
2021/12/17 01:56:51;;;;;;;;;26.33;26.33;;;;;1.82;89.73;101221.13;5040449;28;12314;-70
2021/12/17 01:59:50;;;;;;;;;29.00;29.00;;;;;1.76;89.30;101213.16;5041128;28;11555;-70
2021/12/17 02:02:52;;;;;;;;;29.50;26.00;;;;;1.81;88.97;101208.56;5035037;28;11572;-70
2021/12/17 02:05:49;;;;;;;;;26.67;26.00;;;;;1.97;89.28;101206.78;5020125;28;11578;-70
2021/12/17 02:08:46;;;;;;;;;34.33;28.00;;;;;2.05;88.76;101208.22;5051755;28;11554;-70
2021/12/17 02:22:33;;;;;;;;;27.33;26.33;;;;;2.06;89.21;101194.31;5055699;28;11621;-70
2021/12/17 02:31:20;;;;;;;;;25.75;25.75;;;;;2.15;88.89;101170.94;5055689;28;11610;-71
2021/12/17 02:34:34;;;;;;;;;33.33;32.67;;;;;2.21;88.70;101178.03;5055292;28;11558;-71
2021/12/17 02:37:32;;;;;;;;;39.67;38.33;;;;;2.23;89.06;101169.63;5038329;28;11541;-71
2021/12/17 02:46:01;;;;;;;;;33.00;33.00;;;;;2.27;87.87;101168.00;5056297;28;11584;-70
2021/12/17 02:48:58;;;;;;;;;35.33;32.00;;;;;2.40;87.60;101175.72;5055142;28;11625;-70
2021/12/17 02:51:54;;;;;;;;;34.33;29.67;;;;;2.32;87.44;101173.50;5056816;28;11556;-70
2021/12/17 02:54:50;;;;;;;;;20.25;19.25;;;;;1.95;88.03;101174.31;5054360;28;12168;-70
2021/12/17 02:57:46;;;;;;;;;27.00;24.25;;;;;2.10;88.60;101170.06;5040934;28;11514;-70
2021/12/17 03:00:43;;;;;;;;;20.00;20.00;;;;;2.19;88.07;101177.50;5054577;28;11528;-71
2021/12/17 03:03:42;;;;;;;;;18.00;16.25;;;;;2.10;87.49;101179.06;5054103;28;11453;-71
2021/12/17 03:06:41;;;;;;;;;21.50;21.50;;;;;1.96;88.79;101172.41;5054860;28;11484;-70
2021/12/17 03:12:50;;;;;;;;;16.75;15.75;;;;;2.24;88.32;101174.00;5054162;28;11628;-70
2021/12/17 03:15:53;;;;;;;;;18.00;18.00;;;;;1.99;88.16;101163.69;5054150;28;11514;-70
2021/12/17 03:24:59;;;;;;;;;18.00;17.50;;;;;2.40;88.27;101153.88;5053965;28;11482;-70
2021/12/17 03:27:55;;;;;;;;;18.25;17.00;;;;;2.30;88.53;101148.38;5054599;28;11622;-71
2021/12/17 03:30:50;;;;;;;;;24.25;24.25;;;;;2.27;87.71;101153.53;5054373;28;11470;-71
2021/12/17 03:33:49;;;;;;;;;18.25;18.25;;;;;2.33;88.15;101155.19;5053794;28;12326;-70
2021/12/17 03:36:56;;;;;;;;;24.50;24.50;;;;;2.26;88.76;101157.34;5054558;28;11576;-70
2021/12/17 03:39:52;;;;;;;;;26.25;24.50;;;;;2.28;88.65;101153.25;5055678;28;11639;-70
2021/12/17 03:42:20;;;;;;;;;31.50;28.50;;;;;2.42;87.55;101143.50;5055056;28;11610;-70
2021/12/17 03:44:48;;;;;;;;;28.25;23.50;;;;;2.33;88.10;101126.00;5055131;28;11591;-70
2021/12/17 03:47:30;;;;;;;;;20.75;17.75;;;;;2.24;88.69;101113.94;5055138;28;11602;-70
2021/12/17 03:50:25;;;;;;;;;22.00;20.75;;;;;2.16;88.83;101106.25;5055443;28;11604;-70
2021/12/17 03:53:21;;;;;;;;;38.33;32.00;;;;;2.13;89.85;101112.22;5040919;28;11552;-70
2021/12/17 03:56:17;;;;;;;;;18.25;17.25;;;;;2.23;89.16;101106.84;5055514;28;11547;-70
2021/12/17 03:59:13;;;;;;;;;23.75;22.75;;;;;2.09;90.10;101111.13;5052531;28;11510;-70
2021/12/17 04:02:08;;;;;;;;;20.25;20.25;;;;;2.34;88.86;101094.88;5053274;28;12325;-70
2021/12/17 04:05:04;;;;;;;;;21.75;17.75;;;;;2.26;89.28;101100.03;5053377;28;11552;-70
2021/12/17 04:08:00;;;;;;;;;21.25;21.00;;;;;2.31;88.92;101089.97;5048865;28;11653;-70
2021/12/17 04:10:37;;;;;;;;;25.00;23.25;;;;;2.28;89.71;101087.75;5052790;28;12386;-69
2021/12/17 04:13:37;;;;;;;;;21.50;20.00;;;;;2.44;88.91;101091.38;5051825;28;11694;-70
2021/12/17 04:16:35;;;;;;;;;24.25;24.25;;;;;2.42;88.10;101083.44;5053644;28;11596;-70
2021/12/17 04:19:31;;;;;;;;;20.25;19.25;;;;;2.39;88.46;101084.00;5039432;28;12266;-70
2021/12/17 04:22:27;;;;;;;;;25.00;22.25;;;;;2.51;87.76;101084.56;5039587;28;12313;-70
2021/12/17 04:25:23;;;;;;;;;18.50;18.50;;;;;2.50;87.89;101085.66;5053105;28;11591;-70
2021/12/17 04:28:19;;;;;;;;;13.00;12.50;;;;;2.58;87.59;101084.31;5039909;28;11589;-70
2021/12/17 04:31:17;;;;;;;;;18.75;18.75;;;;;2.60;87.73;101068.47;5053395;28;11689;-71
2021/12/17 04:34:16;;;;;;;;;17.75;17.75;;;;;2.45;88.12;101071.16;5053154;28;11676;-70
2021/12/17 04:37:12;;;;;;;;;19.00;15.25;;;;;2.39;87.93;101075.81;5053216;28;11553;-70
2021/12/17 04:40:08;;;;;;;;;15.00;15.00;;;;;2.45;88.47;101076.63;5040033;28;11646;-70
2021/12/17 04:42:48;;;;;;;;;25.50;23.75;;;;;2.50;87.33;101074.75;5053632;28;11523;-71
2021/12/17 04:45:19;;;;;;;;;22.75;22.00;;;;;2.59;87.34;101066.84;5019837;28;12387;-70
2021/12/17 05:00:25;;;;;;;;;23.25;21.25;;;;;2.43;88.47;101065.16;5052669;28;11494;-70
2021/12/17 05:03:20;;;;;;;;;19.25;19.25;;;;;2.48;88.34;101063.28;5052214;28;11582;-69
2021/12/17 05:06:10;;;;;;;;;25.50;25.50;;;;;2.56;88.71;101055.66;5030943;28;11535;-70
2021/12/17 05:08:38;;;;;;;;;17.50;17.50;;;;;2.58;88.53;101057.00;5053328;28;11582;-70
2021/12/17 05:21:08;;;;;;;;;25.50;25.50;;;;;2.71;88.08;101051.03;5045019;28;11576;-70
2021/12/17 05:24:04;;;;;;;;;19.00;18.75;;;;;2.60;88.46;101043.91;5038901;28;11612;-70
2021/12/17 05:27:00;;;;;;;;;32.50;29.00;;;;;2.55;89.12;101046.63;5051564;28;11586;-70
2021/12/17 05:29:56;;;;;;;;;15.75;14.25;;;;;2.82;88.00;101046.41;5031930;28;11573;-70
2021/12/17 05:32:51;;;;;;;;;12.75;12.75;;;;;2.76;87.73;101050.22;5051988;28;11589;-71
2021/12/17 05:35:48;;;;;;;;;13.25;13.25;;;;;2.77;87.54;101052.72;5038646;28;11575;-71
2021/12/17 05:38:29;;;;;;;;;13.75;13.75;;;;;2.74;87.69;101052.41;5032716;28;11515;-71
2021/12/17 05:41:11;;;;;;;;;11.25;11.25;;;;;2.70;88.54;101048.59;5033068;28;11737;-70
2021/12/17 05:43:39;;;;;;;;;79.67;67.00;;;;;2.64;88.53;101047.75;5033057;28;11632;-70
2021/12/17 05:46:52;;;;;;;;;17.50;16.50;;;;;2.66;88.84;101039.28;5035845;28;8891;-69
2021/12/17 05:49:48;;;;;;;;;18.25;16.00;;;;;2.70;89.08;101045.88;5051859;28;11550;-69
2021/12/17 05:52:43;;;;;;;;;17.00;14.50;;;;;2.70;88.64;101043.94;5052762;28;11546;-69
2021/12/17 05:55:39;;;;;;;;;15.25;15.25;;;;;2.79;88.55;101036.03;5063295;28;11520;-72
2021/12/17 05:58:21;;;;;;;;;16.00;16.00;;;;;2.72;88.94;101035.47;5057355;28;12305;-72
2021/12/17 06:01:16;;;;;;;;;16.50;16.50;;;;;2.62;89.24;101035.47;5019354;28;12342;-72
2021/12/17 06:03:44;;;;;;;;;15.75;15.25;;;;;2.63;89.24;101035.19;5032719;28;11508;-72
2021/12/17 06:06:12;;;;;;;;;21.00;21.00;;;;;2.68;89.83;101035.19;5037120;28;11524;-71
2021/12/17 06:08:40;;;;;;;;;20.50;20.50;;;;;2.86;88.76;101031.13;5035121;28;12270;-71
2021/12/17 06:11:36;;;;;;;;;17.50;17.50;;;;;2.91;88.07;101033.03;5051823;28;11531;-72
2021/12/17 06:14:32;;;;;;;;;27.25;24.00;;;;;2.86;88.38;101031.13;5052235;28;11558;-72
2021/12/17 06:17:27;;;;;;;;;21.25;21.00;;;;;2.87;89.02;101031.97;5050850;28;11511;-71
2021/12/17 06:19:55;;;;;;;;;15.00;15.00;;;;;2.83;88.45;101019.91;5051508;28;11628;-71
2021/12/17 06:22:52;;;;;;;;;16.50;16.50;;;;;2.95;88.50;101020.50;5052608;28;12343;-71
2021/12/17 06:25:48;;;;;;;;;19.75;19.50;;;;;2.89;88.21;101024.31;5037948;28;11603;-71
2021/12/17 06:28:43;;;;;;;;;9.75;9.75;;;;;2.99;88.48;101024.31;5038232;28;11542;-71
2021/12/17 06:31:39;;;;;;;;;5.50;5.50;;;;;2.97;87.85;101024.59;5034866;28;11519;-71
2021/12/17 06:34:06;;;;;;;;;13.00;13.00;;;;;2.97;87.45;101016.38;5048819;28;11483;-72
2021/12/17 06:37:03;;;;;;;;;15.00;15.00;;;;;3.16;87.56;101021.31;5050481;28;11524;-72
2021/12/17 06:39:32;;;;;;;;;16.25;14.25;;;;;2.89;87.70;101007.91;5047877;28;11530;-71
2021/12/17 06:42:28;;;;;;;;;14.50;14.00;;;;;2.56;88.99;101009.22;5063113;28;11582;-70
2021/12/17 06:45:00;;;;;;;;;17.75;11.75;;;;;2.76;89.41;101010.09;5051641;28;12249;-71
2021/12/17 06:47:34;;;;;;;;;22.25;22.25;;;;;2.93;89.19;101004.38;5051885;28;11564;-71
2021/12/17 07:23:06;;;;;;;;;22.00;21.25;;;;;3.23;87.93;100997.28;5053932;28;11570;-71
2021/12/17 07:35:39;;;;;;;;;28.75;28.75;;;;;3.19;87.87;100990.72;5048032;28;11605;-72
2021/12/17 07:41:07;;;;;;;;;44.00;41.50;;;;;3.13;88.32;100989.06;5055063;28;11628;-73
2021/12/17 07:44:03;;;;;;;;;32.00;32.00;;;;;3.15;88.07;100990.44;5054116;28;11530;-73
2021/12/17 07:46:59;;;;;;;;;34.25;32.00;;;;;3.23;87.98;100989.06;5053960;28;11559;-72
2021/12/17 07:49:54;;;;;;;;;23.50;21.50;;;;;3.37;87.84;100994.78;5038566;28;11551;-72
2021/12/17 07:52:50;;;;;;;;;17.25;15.00;;;;;3.28;87.77;100989.06;5040596;28;11534;-71
2021/12/17 07:55:46;;;;;;;;;13.50;13.50;;;;;3.19;87.44;100996.16;5021007;28;11568;-72
2021/12/17 07:58:15;;;;;;;;;13.25;13.25;;;;;3.22;87.52;100990.16;5053378;28;11560;-72
2021/12/17 08:01:12;;;;;;;;;14.00;14.00;;;;;3.17;87.92;100990.16;5053206;28;11521;-72
2021/12/17 08:04:24;;;;;;;;;10.75;10.75;;;;;3.26;87.90;100996.72;5053758;28;11523;-73
2021/12/17 08:07:19;;;;;;;;;14.00;14.00;;;;;3.36;87.67;100996.69;5040491;28;11526;-69
2021/12/17 08:10:15;;;;;;;;;14.00;14.00;;;;;3.42;87.47;100984.66;5054842;28;11629;-67
2021/12/17 08:13:18;;;;;;;;;19.25;19.25;;;;;3.42;87.64;100979.19;5054784;28;11668;-68
2021/12/17 08:28:07;;;;;;;;;18.75;18.75;;;;;3.44;86.83;100966.06;5053198;28;11582;-71
2021/12/17 08:30:43;;;;;;;;;14.00;14.00;;;;;3.46;86.55;100957.59;5054491;28;11621;-70
2021/12/17 08:33:18;;;;;;;;;12.50;12.50;;;;;3.37;86.86;100970.19;5054137;28;11531;-70
2021/12/17 08:36:14;;;;;;;;;19.00;18.50;;;;;3.48;86.71;100961.69;5039311;28;11702;-71
2021/12/17 08:39:10;;;;;;;;;21.00;19.25;;;;;3.34;87.28;100971.56;5052769;28;11550;-70
2021/12/17 08:42:06;;;;;;;;;14.25;14.25;;;;;3.45;86.81;100958.66;5053958;28;11615;-71
2021/12/17 08:44:36;;;;;;;;;9.00;9.00;;;;;3.44;86.69;100957.03;5054130;28;11475;-71
2021/12/17 08:47:32;;;;;;;;;18.00;18.00;;;;;3.46;86.82;100946.66;5053330;28;11460;-72
2021/12/17 08:50:27;;;;;;;;;16.25;16.25;;;;;3.55;86.52;100951.28;5052803;28;11492;-73
2021/12/17 08:53:26;;;;;;;;;14.00;14.00;;;;;3.59;86.55;100946.06;5052510;28;11520;-73
2021/12/17 08:56:23;;;;;;;;;13.50;13.00;;;;;3.39;87.40;100943.41;5042555;28;11539;-73
2021/12/17 08:59:21;;;;;;;;;19.75;19.75;;;;;3.30;87.22;100934.94;5062256;28;11620;-73
2021/12/17 09:02:16;;;;;;;;;16.25;15.25;;;;;3.43;87.58;100934.34;5051973;28;11645;-72
2021/12/17 09:04:46;;;;;;;;;21.75;18.50;;;;;3.39;87.71;100933.28;5053280;28;11564;-73
2021/12/17 09:07:42;;;;;;;;;19.75;19.75;;;;;3.44;87.43;100930.50;5053117;28;11612;-73
2021/12/17 09:10:38;;;;;;;;;25.75;24.25;;;;;3.30;88.02;100921.28;5039262;28;11636;-72
2021/12/17 09:13:07;;;;;;;;;17.25;17.25;;;;;3.37;88.24;100913.56;5040528;28;11482;-72
2021/12/17 09:16:07;;;;;;;;;18.50;18.50;;;;;3.32;87.22;100906.22;5052467;28;11603;-72
2021/12/17 09:19:05;;;;;;;;;19.50;18.25;;;;;3.31;87.60;100907.31;5039159;28;11470;-73
2021/12/17 09:21:48;;;;;;;;;23.75;21.25;;;;;3.42;87.38;100904.56;5038717;28;11463;-73
2021/12/17 09:24:19;;;;;;;;;19.75;19.00;;;;;3.37;87.25;100891.72;5053391;28;11685;-72
2021/12/17 09:27:15;;;;;;;;;17.75;17.75;;;;;3.40;87.71;100895.81;5038487;28;11530;-73
2021/12/17 09:30:15;;;;;;;;;21.00;21.00;;;;;3.39;87.60;100888.72;5051222;28;12252;-72
2021/12/17 09:33:10;;;;;;;;;15.00;15.00;;;;;3.42;87.24;100885.41;5038337;28;11633;-72
2021/12/17 09:36:06;;;;;;;;;15.25;15.25;;;;;3.52;86.96;100888.09;5038416;28;12282;-73
2021/12/17 09:39:03;;;;;;;;;16.00;14.75;;;;;3.52;86.86;100886.19;5064529;28;11530;-72
2021/12/17 09:41:31;;;;;;;;;13.00;13.00;;;;;3.53;86.85;100879.66;5053477;28;11523;-73
2021/12/17 09:44:00;;;;;;;;;17.50;17.50;;;;;3.59;86.54;100873.03;5053148;28;12544;-73
2021/12/17 09:46:38;;;;;;;;;10.50;10.50;;;;;3.43;87.07;100868.72;5020318;28;11560;-73
2021/12/17 09:49:09;;;;;;;;;25.75;23.25;;;;;3.49;87.01;100873.09;5053234;28;11518;-72
2021/12/17 09:51:37;;;;;;;;;30.00;29.75;;;;;3.58;87.21;100871.41;5068389;28;11631;-71
2021/12/17 09:54:05;;;;;;;;;36.50;36.50;;;;;3.64;87.69;100861.28;5068171;28;11588;-72
2021/12/17 09:56:33;;;;;;;;;29.25;29.25;;;;;3.74;87.45;100869.41;5035716;28;11555;-73
2021/12/17 09:59:02;;;;;;;;;39.00;39.00;;;;;3.74;87.95;100865.88;5052929;28;11543;-73
2021/12/17 10:01:31;;;;;;;;;46.25;41.00;;;;;3.72;88.07;100854.41;5052976;28;11539;-72
2021/12/17 10:04:31;;;;;;;;;47.25;45.25;;;;;3.70;87.46;100857.41;5051757;28;11664;-73
2021/12/17 10:07:25;;;;;;;;;43.25;40.25;;;;;3.73;87.50;100854.09;5045357;28;11701;-73
2021/12/17 10:09:59;;;;;;;;;45.50;42.25;;;;;3.64;88.00;100855.81;5068456;28;11578;-73
2021/12/17 10:12:32;;;;;;;;;38.75;35.00;;;;;3.78;88.26;100845.06;5052711;28;11617;-73
2021/12/17 10:15:07;;;;;;;;;42.00;39.50;;;;;3.83;87.78;100843.13;5052934;28;11656;-73
2021/12/17 10:17:51;;;;;;;;;35.25;34.75;;;;;3.71;87.84;100833.63;5052746;28;11560;-73
2021/12/17 10:20:22;;;;;;;;;34.50;33.50;;;;;3.84;87.30;100828.34;5035667;28;11626;-74
2021/12/17 10:23:01;;;;;;;;;40.75;38.25;;;;;3.86;87.21;100837.09;5052793;28;11534;-73
2021/12/17 10:25:31;;;;;;;;;37.00;37.00;;;;;3.94;87.70;100826.66;5053165;28;11563;-73
2021/12/17 10:28:03;;;;;;;;;26.50;25.25;;;;;3.89;87.92;100822.00;5052722;28;11522;-73
2021/12/17 10:30:37;;;;;;;;;33.00;33.00;;;;;4.04;88.08;100813.69;5035533;28;11534;-73
2021/12/17 10:33:14;;;;;;;;;34.00;34.00;;;;;4.05;87.70;100807.13;5035555;28;11550;-74
2021/12/17 10:35:45;;;;;;;;;29.25;28.25;;;;;4.03;87.32;100800.31;5052563;28;11564;-73
2021/12/17 10:38:16;;;;;;;;;24.50;22.50;;;;;4.03;87.42;100801.13;5035185;28;11607;-73
2021/12/17 10:40:56;;;;;;;;;28.25;26.50;;;;;4.23;87.12;100793.88;5036372;28;11590;-71
2021/12/17 10:43:32;;;;;;;;;40.75;37.50;;;;;4.13;87.61;100787.34;5056318;28;11541;-72
2021/12/17 10:46:24;;;;;;;;;33.00;32.75;;;;;4.06;87.40;100783.31;5023325;28;11591;-72
2021/12/17 10:54:16;;;;;;;;;39.50;37.75;;;;;4.11;87.30;100777.81;5056352;28;11632;-73
2021/12/17 10:56:53;;;;;;;;;41.50;40.00;;;;;4.14;87.21;100772.59;5069399;28;11683;-72
2021/12/17 10:59:27;;;;;;;;;63.33;50.00;;;;;4.30;87.00;100786.16;5056129;28;11541;-71
2021/12/17 11:02:02;;;;;;;;;68.00;54.67;;;;;4.15;87.06;100781.63;5071477;28;11538;-72
2021/12/17 11:04:39;;;;;;;;;61.67;52.33;;;;;4.41;86.56;100776.75;5038959;28;12401;-72
2021/12/17 11:07:13;;;;;;;;;69.00;57.00;;;;;4.33;86.67;100780.09;5056332;28;8843;-72
2021/12/17 11:09:47;;;;;;;;;66.00;57.00;;;;;4.21;87.44;100769.50;5056008;28;8864;-73
2021/12/17 11:12:35;;;;;;;;;65.67;53.67;;;;;4.27;87.68;100771.09;5055823;28;11601;-72
2021/12/17 11:15:24;;;;;;;;;69.67;60.00;;;;;4.28;87.31;100769.19;5055861;28;12374;-72
2021/12/17 11:18:03;;;;;;;;;79.00;65.00;;;;;4.42;87.32;100756.47;5038108;28;11553;-72
2021/12/17 11:20:35;;;;;;;;;85.67;67.33;;;;;4.51;86.92;100764.88;5055985;28;8844;-72
2021/12/17 11:23:12;;;;;;;;;95.00;72.67;;;;;4.57;86.78;100756.31;5055093;28;8851;-73
2021/12/17 11:25:47;;;;;;;;;92.00;72.67;;;;;4.57;86.50;100759.06;5058920;28;8840;-71
2021/12/17 11:28:22;;;;;;;;;95.00;76.67;;;;;4.54;86.57;100756.09;5055592;28;8860;-72
2021/12/17 11:31:18;;;;;;;;;101.33;76.00;;;;;4.56;87.03;100754.69;5040404;28;8829;-73
2021/12/17 11:34:06;;;;;;;;;96.33;77.33;;;;;4.61;87.18;100743.69;5054351;28;8847;-72
2021/12/17 11:37:06;;;;;;;;;104.33;83.33;;;;;4.64;86.45;100743.09;5054147;28;8859;-70
2021/12/17 11:40:07;;;;;;;;;99.00;81.67;;;;;4.66;86.42;100743.63;5040914;28;8839;-71
2021/12/17 11:43:29;;;;;;;;;105.33;85.00;;;;;4.54;86.75;100745.13;5054421;28;8852;-71
2021/12/17 11:46:05;;;;;;;;;81.67;66.33;;;;;4.64;86.50;100750.50;5039712;28;8937;-72
2021/12/17 11:49:11;;;;;;;;;91.67;69.00;;;;;4.64;86.61;100745.84;5055825;28;8863;-71
2021/12/17 11:51:39;;;;;;;;;97.00;70.67;;;;;4.63;86.59;100746.94;5056138;28;8954;-71
2021/12/17 11:54:15;;;;;;;;;93.00;70.67;;;;;4.59;86.98;100756.00;5039239;28;9719;-71
2021/12/17 11:56:51;;;;;;;;;75.33;60.33;;;;;4.61;86.21;100746.44;5060342;28;8855;-71
2021/12/17 11:59:48;;;;;;;;;86.67;65.00;;;;;4.57;86.75;100753.56;5041084;28;8839;-71
2021/12/17 12:02:51;;;;;;;;;71.33;55.33;;;;;4.65;87.32;100761.16;5062625;28;8936;-71
2021/12/17 12:05:35;;;;;;;;;55.25;48.50;;;;;4.56;86.97;100756.59;5042463;28;11620;-71
2021/12/17 12:08:25;;;;;;;;;71.00;58.67;;;;;4.49;86.91;100756.13;5025889;28;11564;-71
2021/12/17 12:11:25;;;;;;;;;91.33;66.33;;;;;4.56;86.74;100751.94;5070578;28;8851;-71
2021/12/17 12:14:30;;;;;;;;;95.33;70.67;;;;;4.39;87.26;100760.59;5062920;28;8853;-70
2021/12/17 12:17:57;;;;;;;;;82.67;62.00;;;;;4.43;87.36;100752.59;5058141;28;8958;-75
2021/12/17 12:20:43;;;;;;;;;81.00;61.00;;;;;4.40;87.40;100756.75;5060167;28;8860;-74
2021/12/17 12:23:17;;;;;;;;;61.33;49.67;;;;;4.47;87.00;100750.94;5061048;28;8846;-74
2021/12/17 12:26:17;;;;;;;;;63.25;54.00;;;;;4.15;87.34;100756.97;5060639;28;11638;-74
2021/12/17 12:28:47;;;;;;;;;64.00;50.00;;;;;4.34;87.40;100751.59;5036422;28;11662;-75
2021/12/17 12:31:47;;;;;;;;;43.25;38.00;;;;;4.25;87.71;100750.59;5052892;28;11604;-74
2021/12/17 12:34:30;;;;;;;;;49.50;43.75;;;;;4.31;87.70;100744.78;5054331;28;11537;-75
2021/12/17 12:37:26;;;;;;;;;38.25;30.50;;;;;4.12;88.11;100744.66;5053145;28;11551;-74
2021/12/17 12:40:22;;;;;;;;;41.25;38.75;;;;;4.13;87.80;100754.50;5053708;28;12547;-74
2021/12/17 12:42:53;;;;;;;;;43.00;39.25;;;;;4.24;87.82;100748.97;5036199;28;11615;-74
2021/12/17 12:45:48;;;;;;;;;39.00;39.00;;;;;4.41;87.68;100752.91;5052894;28;11541;-74
2021/12/17 12:48:48;;;;;;;;;41.50;40.75;;;;;4.39;87.52;100757.06;5054005;28;11540;-74
2021/12/17 12:51:23;;;;;;;;;48.25;45.00;;;;;4.46;87.24;100755.59;5054183;28;11716;-74
2021/12/17 12:54:07;;;;;;;;;39.50;38.75;;;;;4.15;87.52;100763.28;5036311;28;11554;-73
2021/12/17 12:56:39;;;;;;;;;31.50;31.50;;;;;4.02;88.38;100760.38;5068609;28;11615;-73
2021/12/17 12:59:22;;;;;;;;;41.75;37.50;;;;;4.09;87.86;100766.34;5052714;28;12305;-74
2021/12/17 13:02:17;;;;;;;;;35.25;33.25;;;;;4.12;88.12;100758.34;5052082;28;12410;-72
2021/12/17 13:05:13;;;;;;;;;40.00;40.00;;;;;4.19;87.95;100764.31;5052009;28;11585;-73
2021/12/17 13:07:47;;;;;;;;;33.75;32.25;;;;;4.16;88.38;100767.63;5053568;28;11733;-73
2021/12/17 13:10:27;;;;;;;;;40.75;40.25;;;;;4.14;87.68;100766.28;5053017;28;11726;-71
2021/12/17 13:24:36;;;;;;;;;26.75;26.75;;;;;4.19;87.45;100753.38;5033429;28;11519;-72
2021/12/17 13:27:10;;;;;;;;;36.25;34.75;;;;;4.16;87.22;100755.88;5048582;28;11622;-73
2021/12/17 13:30:06;;;;;;;;;36.75;36.75;;;;;4.19;87.17;100758.03;5032192;28;11556;-72
2021/12/17 13:33:01;;;;;;;;;24.75;24.75;;;;;4.04;88.04;100763.63;5038390;28;11606;-72
2021/12/17 13:35:57;;;;;;;;;25.00;23.50;;;;;4.00;88.18;100760.66;5051977;28;11630;-73
2021/12/17 13:38:58;;;;;;;;;39.50;37.75;;;;;4.06;87.97;100761.41;5052449;28;11519;-73
2021/12/17 13:41:55;;;;;;;;;27.75;27.25;;;;;3.92;88.67;100761.25;5052149;28;11557;-73
2021/12/17 13:44:56;;;;;;;;;19.75;19.75;;;;;3.81;88.75;100771.44;5052605;28;11582;-72
2021/12/17 13:47:55;;;;;;;;;16.25;16.25;;;;;3.74;88.48;100768.19;5038737;28;11538;-72
2021/12/17 13:50:51;;;;;;;;;7.75;6.25;;;;;3.70;88.94;100766.34;5040205;28;11543;-72
2021/12/17 13:53:48;;;;;;;;;18.50;18.50;;;;;3.93;89.02;100773.84;5039435;28;11489;-72
2021/12/17 13:56:55;;;;;;;;;19.25;18.75;;;;;3.92;88.18;100771.41;5062854;28;11511;-73
2021/12/17 13:59:37;;;;;;;;;16.75;15.75;;;;;3.82;88.40;100772.25;5051745;28;11529;-71
2021/12/17 14:02:34;;;;;;;;;14.75;12.75;;;;;3.81;88.51;100774.19;5039912;28;11442;-71
2021/12/17 14:05:40;;;;;;;;;14.00;11.00;;;;;3.93;87.75;100783.97;5053047;28;11741;-72
2021/12/17 14:08:18;;;;;;;;;8.25;8.25;;;;;3.66;88.37;100781.66;5016208;28;11572;-73
2021/12/17 14:11:19;;;;;;;;;13.75;13.75;;;;;3.75;88.45;100786.25;5031914;28;11479;-73
2021/12/17 14:14:28;;;;;;;;;19.00;16.25;;;;;3.67;88.42;100775.09;5032890;28;11673;-71
2021/12/17 14:17:24;;;;;;;;;11.50;11.50;;;;;3.72;88.85;100784.09;5036558;28;12461;-72
2021/12/17 14:20:04;;;;;;;;;14.00;11.50;;;;;3.92;88.38;100785.88;5039488;28;12299;-72
2021/12/17 14:23:14;;;;;;;;;19.00;18.50;;;;;4.03;87.95;100787.44;5042174;28;11679;-73
2021/12/17 14:26:09;;;;;;;;;12.00;12.00;;;;;3.74;87.81;100784.63;5042127;28;11587;-72
2021/12/17 14:29:10;;;;;;;;;12.00;12.00;;;;;3.55;88.39;100783.66;5042266;28;12566;-73
2021/12/17 14:32:06;;;;;;;;;1.25;1.25;;;;;3.41;89.18;100794.38;5055505;28;11588;-72
2021/12/17 14:35:02;;;;;;;;;10.00;10.00;;;;;3.56;88.83;100791.56;5055445;28;11529;-74
2021/12/17 14:38:03;;;;;;;;;15.00;13.25;;;;;3.49;89.21;100788.31;5054997;28;11523;-74
2021/12/17 14:41:00;;;;;;;;;17.00;14.25;;;;;3.61;88.68;100802.50;5067317;28;11511;-73
2021/12/17 15:03:47;;;;;;;;;14.50;14.50;;;;;3.73;88.19;100804.06;5074614;28;11500;-73
2021/12/17 15:06:43;;;;;;;;;26.00;25.50;;;;;3.72;87.77;100807.91;5061209;28;12368;-74
2021/12/17 15:09:43;;;;;;;;;23.25;23.25;;;;;3.80;87.94;100802.63;5041432;28;11626;-74
2021/12/17 15:12:40;;;;;;;;;30.25;24.75;;;;;3.80;88.08;100808.13;5054736;28;11592;-74
2021/12/17 15:15:37;;;;;;;;;19.25;17.75;;;;;3.52;88.66;100808.81;5021333;28;12272;-74
2021/12/17 15:18:33;;;;;;;;;21.25;21.25;;;;;3.64;88.34;100817.50;5023026;28;11517;-74
2021/12/17 15:21:29;;;;;;;;;21.25;21.25;;;;;3.53;88.22;100814.00;5022878;28;11540;-75
2021/12/17 15:24:10;;;;;;;;;25.25;25.25;;;;;3.73;87.69;100815.00;5035472;28;11560;-74
2021/12/17 15:27:06;;;;;;;;;24.25;23.25;;;;;3.70;88.05;100810.91;5031795;28;11526;-74
2021/12/17 15:30:20;;;;;;;;;29.25;29.25;;;;;3.51;88.42;100818.09;5034684;28;11556;-74
2021/12/17 15:32:56;;;;;;;;;23.75;23.75;;;;;3.52;88.80;100822.47;5035476;28;11551;-74
2021/12/17 15:35:52;;;;;;;;;29.00;28.75;;;;;3.73;88.82;100820.47;5034123;28;11535;-74
2021/12/17 15:38:48;;;;;;;;;39.00;36.00;;;;;3.60;89.11;100813.69;5033944;28;11609;-74
2021/12/17 15:41:44;;;;;;;;;30.50;26.75;;;;;3.62;89.12;100822.44;5034206;28;11553;-74
2021/12/17 15:44:39;;;;;;;;;37.25;35.00;;;;;3.79;88.94;100822.09;5035600;28;11616;-75
2021/12/17 15:47:35;;;;;;;;;40.50;37.75;;;;;3.98;88.34;100830.44;5015470;28;11597;-74
2021/12/17 15:50:30;;;;;;;;;45.00;41.25;;;;;4.01;88.24;100816.22;5014320;28;11547;-74
2021/12/17 15:53:26;;;;;;;;;38.50;33.25;;;;;3.84;89.02;100827.53;5035104;28;11581;-75
2021/12/17 15:56:22;;;;;;;;;31.75;31.50;;;;;3.71;88.87;100836.34;5022138;28;11670;-74
2021/12/17 15:58:51;;;;;;;;;33.50;33.50;;;;;3.72;89.71;100827.03;5017849;28;12350;-74
2021/12/17 16:01:22;;;;;;;;;34.75;33.25;;;;;3.79;89.31;100838.50;5026949;28;11556;-74
2021/12/17 16:04:18;;;;;;;;;26.25;26.25;;;;;3.66;89.63;100837.19;5045492;28;11567;-73
2021/12/17 16:07:14;;;;;;;;;32.25;31.50;;;;;3.74;89.77;100830.31;5021764;28;11530;-74
2021/12/17 16:10:38;;;;;;;;;34.50;33.50;;;;;3.93;88.97;100847.72;5018930;28;11588;-74
2021/12/17 16:22:16;;;;;;;;;45.50;41.50;;;;;4.15;88.48;100839.09;5034292;28;11664;-75
2021/12/17 16:25:12;;;;;;;;;52.00;45.25;;;;;3.97;88.69;100842.50;5033455;28;11617;-75
2021/12/17 16:28:07;;;;;;;;;40.25;38.50;;;;;3.97;88.62;100840.56;5027674;28;11589;-75
2021/12/17 16:31:25;;;;;;;;;39.25;38.25;;;;;4.00;88.96;100848.22;5033004;28;11545;-75